Mc Grath, Minnesota
Current Conditions -  °F | °C
As of 8:27 PM on Saturday 20 Dec 2014 (Local Time) from KHZX Reporting Station
Overcast Overcast  
Wind Chill: 20°   Ceiling: 700
Heat Index: 30°   Visibility: 10mi
Dew Point: 28°   Wind: 14mph
Humidity: 93%   Direction: 190°S
Pressure: 30.05"   Gusts: NA
Location:  46.3008°N, 93.2513°W
Report Text: KHZX 210227Z AUTO 19012KT 10SM OVC007 M01/M02 A3005 RMK AO2
Loading
Personal Weather Stations






























Interactive Weather Map New forecast layout! Learn more

10-Day Weather Forecast

Advertisements
Track Severe Weather on mobile